Rome Urbe Air Force Base, Italy

1:22 PM CEST on August 29, 2014 (GMT +0200)
IRMROMA12 | Change Station
CLOSE
Current Station
Personal Weather Station
Location: Roma / Trieste-Salario, RM
Elevation: 148 ft
Nearby Weather Stations

Elev 148 ft 41.94 °N, 12.51 °E | Updated 6 minutes ago

Partly Cloudy
Partly Cloudy
86.9 °F
Feels Like 88 °F
N
4.3
Wind Variable Wind from WNW
Gusts 8.3 mph

Today
High -- | Low -- °F
--% Chance of Precip.
Yesterday
High -- | Low -- °F
Precip. -- in
6:32 AM 7:48 PM
Waxing Crescent, 13% visible
Pressure 29.98 in
Visibility 6.2 miles
Clouds Few 3000 ft
Heat Index 88 °F
Dew Point 64 °F
Humidity 47%
Rainfall 0.00 in
Snow Depth Not available.
UV 9 out of 12
Pollen Not available.
Air Quality Not available.
Flu Activity Not available.
METAR LIRG 291055Z 31002KT 9999 FEW030 31/20 Q1015 RMK FEW MON NE LIB NC VIS MIN 9999 BLU

More Conditions Fewer Conditions

Pressure 29.98 in
Visibility 6.2 miles
Clouds Few 3000 ft
Heat Index 88 °F
Dew Point 64 °F
Humidity 47%
Rainfall 0.00 in
Snow Depth Not available.
UV 9 out of 12
Pollen Not available.
Air Quality Not available.
Flu Activity Not available.
METAR LIRG 291055Z 31002KT 9999 FEW030 31/20 Q1015 RMK FEW MON NE LIB NC VIS MIN 9999 BLU

More Conditions Fewer Conditions

10-Day Weather Forecast

Almanac

Astronomy

Aug. 29, 2014 Rise Set
Actual Time 6:32 AM CEST 7:48 PM CEST
Civil Twilight 6:03 AM CEST 8:17 PM CEST
Nautical Twilight 5:28 AM CEST 8:52 PM CEST
Astronomical Twilight 4:52 AM CEST 9:28 PM CEST
Moon 10:09 AM CEST 9:32 PM CEST
Length of Visible Light 14h 14m
Length of Day
13h 16m
Tomorrow will be 2m 41s shorter.
Waxing Crescent, 13% of the Moon is Illuminated
Today
Waxing Crescent
Sep 2
First Quarter
Sep 8
Full
Sep 15
Last Quarter
Sep 24
New

Yesterday's Extremes

Country Highs Country Lows

Community

WunderPhotos

Upload Photos

1,748,214 photos uploaded!

Nearby

Snow Depth

Not available.

Earthquake Activity

City Distance Mag. Time & Date
No recent earthquake activity has been reported nearby.
Minimum magnitude displayed is 2.5.

Coastal Water Temperatures

Place Temperature
No Stations Reporting

Nearby Weather Stations